This is the latest recevied weather packets stored in our database for station/object N2VSB-13. If no packets are shown the sender has not sent any weather packets the latest 10 day(s).
| Time | Temp. | Humidity | Pressure | Rain* | Wind** | Luminosity | Snow |
|---|---|---|---|---|---|---|---|
| 1777345519 | 17.22° C | 38% | 1021.8 hPa | 0 mm | - | 0 W/m² | - |
| 1777344919 | 17.22° C | 39% | 1021.9 hPa | 0 mm | - | 0 W/m² | - |
| 1777343119 | 17.22° C | 41% | 1021.9 hPa | 0 mm | - | 0 W/m² | - |
| 1777342519 | 16.67° C | 44% | 1022 hPa | 0 mm | - | 0 W/m² | - |
| 1777341919 | 15.56° C | 50% | 1021.9 hPa | 0 mm | - | 0 W/m² | - |
| 1777341317 | 15° C | 54% | 1021.8 hPa | 0 mm | - | 0 W/m² | - |
| 1777339521 | 15.56° C | 52% | 1021.6 hPa | 0 mm | - | 0 W/m² | - |
| 1777335318 | 18.89° C | 44% | 1021.1 hPa | 0 mm | - | 0 W/m² | - |
| 1777333519 | 20.56° C | 36% | 1020.9 hPa | 0 mm | - | 4 W/m² | - |
| 1777329937 | 22.78° C | 29% | 1020.8 hPa | 0 mm | - | 33 W/m² | - |
| 1777328717 | 23.33° C | 29% | 1020.9 hPa | 0 mm | - | 43 W/m² | - |
| 1777322719 | 23.33° C | 29% | 1021.3 hPa | 0 mm | - | 393 W/m² | - |
| 1777320919 | 23.33° C | 30% | 1021.2 hPa | 0 mm | - | 366 W/m² | - |
| 1777319717 | 23.33° C | 30% | 1021.5 hPa | 0 mm | - | 558 W/m² | - |
| 1777317921 | 23.89° C | 30% | 1021.6 hPa | 0 mm | - | 490 W/m² | - |
| 1777311919 | 22.78° C | 32% | 1022.7 hPa | 0 mm | - | 722 W/m² | - |
| 1777311319 | 23.89° C | 31% | 1022.9 hPa | 0 mm | - | 653 W/m² | - |
| 1777310136 | 22.22° C | 34% | 1023 hPa | 0 mm | - | 624 W/m² | - |
| 1777305938 | 20° C | 36% | 1023.6 hPa | 0 mm | - | 699 W/m² | - |
| 1777300519 | 17.78° C | 49% | 1024.5 hPa | 0 mm | - | 698 W/m² | - |
| 1777298117 | 15.56° C | 56% | 1024.7 hPa | 0 mm | - | 554 W/m² | - |
| 1777289717 | 5° C | 91% | 1024.4 hPa | 0 mm | - | 84 W/m² | - |
| 1777285518 | 2.78° C | 91% | 1023.9 hPa | 0 mm | - | 15 W/m² | - |
| 1777278317 | 5° C | 81% | 1023.1 hPa | 0 mm | - | 0 W/m² | - |
| 1777277156 | 5° C | 77% | 1022.9 hPa | 0 mm | - | 0 W/m² | - |
* Rain latest hour (hover to see other rain measurements)
** Current wind speed in m/s (hover to see current wind gust speed)